sensor_id;sensor_type;location;lat;lon;timestamp;temperature;humidity
2300;DHT22;1158;48.750;9.078;2024-02-15T00:02:11;10.10;99.90
2300;DHT22;1158;48.750;9.078;2024-02-15T00:04:37;10.00;99.90
2300;DHT22;1158;48.750;9.078;2024-02-15T00:07:04;10.00;99.90
2300;DHT22;1158;48.750;9.078;2024-02-15T00:09:32;10.10;99.90
2300;DHT22;1158;48.750;9.078;2024-02-15T00:11:59;10.20;99.90
2300;DHT22;1158;48.750;9.078;2024-02-15T00:14:26;10.20;99.90
2300;DHT22;1158;48.750;9.078;2024-02-15T00:16:53;10.20;99.90
2300;DHT22;1158;48.750;9.078;2024-02-15T00:19:20;10.30;99.90
2300;DHT22;1158;48.750;9.078;2024-02-15T00:21:47;10.30;99.90
2300;DHT22;1158;48.750;9.078;2024-02-15T00:24:14;10.30;99.90
2300;DHT22;1158;48.750;9.078;2024-02-15T00:26:42;10.30;99.90
2300;DHT22;1158;48.750;9.078;2024-02-15T00:29:09;10.30;99.90
2300;DHT22;1158;48.750;9.078;2024-02-15T00:31:36;10.30;99.90
2300;DHT22;1158;48.750;9.078;2024-02-15T00:34:03;10.30;99.90
2300;DHT22;1158;48.750;9.078;2024-02-15T00:36:30;10.20;99.90
2300;DHT22;1158;48.750;9.078;2024-02-15T00:38:57;10.20;99.90
2300;DHT22;1158;48.750;9.078;2024-02-15T00:41:24;10.10;99.90
2300;DHT22;1158;48.750;9.078;2024-02-15T00:43:52;10.10;99.90
2300;DHT22;1158;48.750;9.078;2024-02-15T00:46:19;10.10;99.90
2300;DHT22;1158;48.750;9.078;2024-02-15T00:48:46;10.10;99.90
2300;DHT22;1158;48.750;9.078;2024-02-15T00:51:12;10.10;99.90
2300;DHT22;1158;48.750;9.078;2024-02-15T00:53:40;10.00;99.90
2300;DHT22;1158;48.750;9.078;2024-02-15T00:56:07;9.90;99.90
2300;DHT22;1158;48.750;9.078;2024-02-15T00:58:33;9.90;99.90
2300;DHT22;1158;48.750;9.078;2024-02-15T01:01:01;9.90;99.90
2300;DHT22;1158;48.750;9.078;2024-02-15T01:03:28;9.80;99.90
2300;DHT22;1158;48.750;9.078;2024-02-15T01:05:56;9.70;99.90
2300;DHT22;1158;48.750;9.078;2024-02-15T01:08:23;9.70;99.90
2300;DHT22;1158;48.750;9.078;2024-02-15T01:10:49;9.70;99.90
2300;DHT22;1158;48.750;9.078;2024-02-15T01:13:18;9.70;99.90
2300;DHT22;1158;48.750;9.078;2024-02-15T01:15:44;9.80;99.90
2300;DHT22;1158;48.750;9.078;2024-02-15T01:18:13;9.80;99.90
2300;DHT22;1158;48.750;9.078;2024-02-15T01:20:40;9.80;99.90
2300;DHT22;1158;48.750;9.078;2024-02-15T01:23:06;9.70;99.90
2300;DHT22;1158;48.750;9.078;2024-02-15T01:25:33;9.70;99.90
2300;DHT22;1158;48.750;9.078;2024-02-15T01:28:00;9.60;99.90
2300;DHT22;1158;48.750;9.078;2024-02-15T01:30:27;9.60;99.90
2300;DHT22;1158;48.750;9.078;2024-02-15T01:32:54;9.60;99.90
2300;DHT22;1158;48.750;9.078;2024-02-15T01:35:22;9.50;99.90
2300;DHT22;1158;48.750;9.078;2024-02-15T01:37:48;9.40;99.90
2300;DHT22;1158;48.750;9.078;2024-02-15T01:40:16;9.40;99.90
2300;DHT22;1158;48.750;9.078;2024-02-15T01:42:45;9.30;99.90
2300;DHT22;1158;48.750;9.078;2024-02-15T01:45:11;9.20;99.90
2300;DHT22;1158;48.750;9.078;2024-02-15T01:47:38;9.10;99.90
2300;DHT22;1158;48.750;9.078;2024-02-15T01:50:06;9.00;99.90
2300;DHT22;1158;48.750;9.078;2024-02-15T01:52:35;8.90;99.90
2300;DHT22;1158;48.750;9.078;2024-02-15T01:55:03;8.80;99.90
2300;DHT22;1158;48.750;9.078;2024-02-15T01:57:33;8.70;99.90
2300;DHT22;1158;48.750;9.078;2024-02-15T02:00:00;8.50;99.90
2300;DHT22;1158;48.750;9.078;2024-02-15T02:02:30;8.40;99.90
2300;DHT22;1158;48.750;9.078;2024-02-15T02:04:58;8.30;99.90
2300;DHT22;1158;48.750;9.078;2024-02-15T02:07:24;8.20;99.90
2300;DHT22;1158;48.750;9.078;2024-02-15T02:09:52;8.20;99.90
2300;DHT22;1158;48.750;9.078;2024-02-15T02:12:19;8.00;99.90
2300;DHT22;1158;48.750;9.078;2024-02-15T02:14:46;7.90;99.90
2300;DHT22;1158;48.750;9.078;2024-02-15T02:17:13;7.90;99.90
2300;DHT22;1158;48.750;9.078;2024-02-15T02:19:40;7.70;99.90
2300;DHT22;1158;48.750;9.078;2024-02-15T02:22:09;7.60;99.90
2300;DHT22;1158;48.750;9.078;2024-02-15T02:24:44;7.50;99.90
2300;DHT22;1158;48.750;9.078;2024-02-15T02:27:13;7.40;99.90
2300;DHT22;1158;48.750;9.078;2024-02-15T02:29:42;7.30;99.90
2300;DHT22;1158;48.750;9.078;2024-02-15T02:32:10;7.20;99.90
2300;DHT22;1158;48.750;9.078;2024-02-15T02:34:37;7.00;99.90
2300;DHT22;1158;48.750;9.078;2024-02-15T02:37:06;6.90;99.90
2300;DHT22;1158;48.750;9.078;2024-02-15T02:39:33;6.80;99.90
2300;DHT22;1158;48.750;9.078;2024-02-15T02:42:00;6.70;99.90
2300;DHT22;1158;48.750;9.078;2024-02-15T02:44:28;6.60;99.90
2300;DHT22;1158;48.750;9.078;2024-02-15T02:46:55;6.60;99.90
2300;DHT22;1158;48.750;9.078;2024-02-15T02:49:22;6.50;99.90
2300;DHT22;1158;48.750;9.078;2024-02-15T02:51:49;6.50;99.90
2300;DHT22;1158;48.750;9.078;2024-02-15T02:54:15;6.50;99.90
2300;DHT22;1158;48.750;9.078;2024-02-15T02:56:43;6.40;99.90
2300;DHT22;1158;48.750;9.078;2024-02-15T02:59:10;6.20;99.90
2300;DHT22;1158;48.750;9.078;2024-02-15T03:01:39;6.20;99.90
2300;DHT22;1158;48.750;9.078;2024-02-15T03:04:06;6.00;99.90
2300;DHT22;1158;48.750;9.078;2024-02-15T03:06:33;6.00;99.90
2300;DHT22;1158;48.750;9.078;2024-02-15T03:09:00;5.90;99.90
2300;DHT22;1158;48.750;9.078;2024-02-15T03:11:27;5.90;99.90
2300;DHT22;1158;48.750;9.078;2024-02-15T03:13:53;5.80;99.90
2300;DHT22;1158;48.750;9.078;2024-02-15T03:16:22;5.70;99.90
2300;DHT22;1158;48.750;9.078;2024-02-15T03:18:51;5.60;99.90
2300;DHT22;1158;48.750;9.078;2024-02-15T03:21:18;5.60;99.90
2300;DHT22;1158;48.750;9.078;2024-02-15T03:23:45;5.50;99.90
2300;DHT22;1158;48.750;9.078;2024-02-15T03:26:12;5.50;99.90
2300;DHT22;1158;48.750;9.078;2024-02-15T03:28:39;5.40;99.90
2300;DHT22;1158;48.750;9.078;2024-02-15T03:31:06;5.40;99.90
2300;DHT22;1158;48.750;9.078;2024-02-15T03:33:33;5.40;99.90
2300;DHT22;1158;48.750;9.078;2024-02-15T03:36:02;5.40;99.90
2300;DHT22;1158;48.750;9.078;2024-02-15T03:38:28;5.30;99.90
2300;DHT22;1158;48.750;9.078;2024-02-15T03:40:57;5.30;99.90
2300;DHT22;1158;48.750;9.078;2024-02-15T03:43:24;5.30;99.90
2300;DHT22;1158;48.750;9.078;2024-02-15T03:45:50;5.30;99.90
2300;DHT22;1158;48.750;9.078;2024-02-15T03:48:17;5.30;99.90
2300;DHT22;1158;48.750;9.078;2024-02-15T03:50:44;5.30;99.90
2300;DHT22;1158;48.750;9.078;2024-02-15T03:53:12;5.30;99.90
2300;DHT22;1158;48.750;9.078;2024-02-15T03:55:39;5.30;99.90
2300;DHT22;1158;48.750;9.078;2024-02-15T03:58:06;5.20;99.90
2300;DHT22;1158;48.750;9.078;2024-02-15T04:00:34;5.20;99.90
2300;DHT22;1158;48.750;9.078;2024-02-15T04:03:01;5.20;99.90
2300;DHT22;1158;48.750;9.078;2024-02-15T04:05:27;5.20;99.90
2300;DHT22;1158;48.750;9.078;2024-02-15T04:07:54;5.40;99.90
2300;DHT22;1158;48.750;9.078;2024-02-15T04:10:22;5.40;99.90
2300;DHT22;1158;48.750;9.078;2024-02-15T04:12:49;5.50;99.90
2300;DHT22;1158;48.750;9.078;2024-02-15T04:15:16;5.60;99.90
2300;DHT22;1158;48.750;9.078;2024-02-15T04:17:44;5.70;99.90
2300;DHT22;1158;48.750;9.078;2024-02-15T04:20:11;5.70;99.90
2300;DHT22;1158;48.750;9.078;2024-02-15T04:22:40;5.80;99.90
2300;DHT22;1158;48.750;9.078;2024-02-15T04:25:09;5.80;99.90
2300;DHT22;1158;48.750;9.078;2024-02-15T04:27:37;5.90;99.90
2300;DHT22;1158;48.750;9.078;2024-02-15T04:30:04;6.10;99.90
2300;DHT22;1158;48.750;9.078;2024-02-15T04:32:35;6.30;99.90
2300;DHT22;1158;48.750;9.078;2024-02-15T04:35:02;6.40;99.90
2300;DHT22;1158;48.750;9.078;2024-02-15T04:37:30;6.50;99.90
2300;DHT22;1158;48.750;9.078;2024-02-15T04:39:57;6.70;99.90
2300;DHT22;1158;48.750;9.078;2024-02-15T04:42:25;6.80;99.90
2300;DHT22;1158;48.750;9.078;2024-02-15T04:44:54;6.90;99.90
2300;DHT22;1158;48.750;9.078;2024-02-15T04:47:22;7.00;99.90
2300;DHT22;1158;48.750;9.078;2024-02-15T04:49:48;7.10;99.90
2300;DHT22;1158;48.750;9.078;2024-02-15T04:52:15;7.20;99.90
2300;DHT22;1158;48.750;9.078;2024-02-15T04:54:43;7.40;99.90
2300;DHT22;1158;48.750;9.078;2024-02-15T04:57:09;7.50;99.90
2300;DHT22;1158;48.750;9.078;2024-02-15T04:59:37;7.50;99.90
2300;DHT22;1158;48.750;9.078;2024-02-15T05:02:05;7.60;99.90
2300;DHT22;1158;48.750;9.078;2024-02-15T05:04:33;7.60;99.90
2300;DHT22;1158;48.750;9.078;2024-02-15T05:07:01;7.60;99.90
2300;DHT22;1158;48.750;9.078;2024-02-15T05:09:29;7.70;99.90
2300;DHT22;1158;48.750;9.078;2024-02-15T05:11:56;7.70;99.90
2300;DHT22;1158;48.750;9.078;2024-02-15T05:14:23;7.70;99.90
2300;DHT22;1158;48.750;9.078;2024-02-15T05:16:51;7.60;99.90
2300;DHT22;1158;48.750;9.078;2024-02-15T05:19:19;7.70;99.90
2300;DHT22;1158;48.750;9.078;2024-02-15T05:21:46;7.70;99.90
2300;DHT22;1158;48.750;9.078;2024-02-15T05:24:13;7.70;99.90
2300;DHT22;1158;48.750;9.078;2024-02-15T05:26:40;7.80;99.90
2300;DHT22;1158;48.750;9.078;2024-02-15T05:29:08;7.80;99.90
2300;DHT22;1158;48.750;9.078;2024-02-15T05:31:35;7.80;99.90
2300;DHT22;1158;48.750;9.078;2024-02-15T05:34:05;7.80;99.90
2300;DHT22;1158;48.750;9.078;2024-02-15T05:36:34;7.70;99.90
2300;DHT22;1158;48.750;9.078;2024-02-15T05:39:01;7.80;99.90
2300;DHT22;1158;48.750;9.078;2024-02-15T05:41:28;7.70;99.90
2300;DHT22;1158;48.750;9.078;2024-02-15T05:43:55;7.80;99.90
2300;DHT22;1158;48.750;9.078;2024-02-15T05:46:23;7.80;99.90
2300;DHT22;1158;48.750;9.078;2024-02-15T05:48:50;7.70;99.90
2300;DHT22;1158;48.750;9.078;2024-02-15T05:51:17;7.70;99.90
2300;DHT22;1158;48.750;9.078;2024-02-15T05:53:46;7.70;99.90
2300;DHT22;1158;48.750;9.078;2024-02-15T05:56:12;7.70;99.90
2300;DHT22;1158;48.750;9.078;2024-02-15T05:58:39;7.70;99.90
2300;DHT22;1158;48.750;9.078;2024-02-15T06:01:06;7.70;99.90
2300;DHT22;1158;48.750;9.078;2024-02-15T06:03:36;7.70;99.90
2300;DHT22;1158;48.750;9.078;2024-02-15T06:06:05;7.70;99.90
2300;DHT22;1158;48.750;9.078;2024-02-15T06:08:33;7.60;99.90
2300;DHT22;1158;48.750;9.078;2024-02-15T06:11:01;7.70;99.90
2300;DHT22;1158;48.750;9.078;2024-02-15T06:13:28;7.70;99.90
2300;DHT22;1158;48.750;9.078;2024-02-15T06:15:54;7.70;99.90
2300;DHT22;1158;48.750;9.078;2024-02-15T06:18:23;7.70;99.90
2300;DHT22;1158;48.750;9.078;2024-02-15T06:20:51;7.70;99.90
2300;DHT22;1158;48.750;9.078;2024-02-15T06:23:18;7.70;99.90
2300;DHT22;1158;48.750;9.078;2024-02-15T06:25:46;7.70;99.90
2300;DHT22;1158;48.750;9.078;2024-02-15T06:28:15;7.70;99.90
2300;DHT22;1158;48.750;9.078;2024-02-15T06:31:06;7.70;99.90
2300;DHT22;1158;48.750;9.078;2024-02-15T06:33:51;7.60;99.90
2300;DHT22;1158;48.750;9.078;2024-02-15T06:36:39;7.50;99.90
2300;DHT22;1158;48.750;9.078;2024-02-15T06:39:23;7.50;99.90
2300;DHT22;1158;48.750;9.078;2024-02-15T06:42:07;7.50;99.90
2300;DHT22;1158;48.750;9.078;2024-02-15T06:44:35;7.50;99.90
2300;DHT22;1158;48.750;9.078;2024-02-15T06:47:02;7.50;99.90
2300;DHT22;1158;48.750;9.078;2024-02-15T06:49:29;7.50;99.90
2300;DHT22;1158;48.750;9.078;2024-02-15T06:51:56;7.50;99.90
2300;DHT22;1158;48.750;9.078;2024-02-15T06:54:24;7.60;99.90
2300;DHT22;1158;48.750;9.078;2024-02-15T06:56:51;7.60;99.90
2300;DHT22;1158;48.750;9.078;2024-02-15T06:59:19;7.70;99.90
2300;DHT22;1158;48.750;9.078;2024-02-15T07:01:49;7.70;99.90
2300;DHT22;1158;48.750;9.078;2024-02-15T07:04:17;7.70;99.90
2300;DHT22;1158;48.750;9.078;2024-02-15T07:06:44;7.90;99.90
2300;DHT22;1158;48.750;9.078;2024-02-15T07:09:13;7.90;99.90
2300;DHT22;1158;48.750;9.078;2024-02-15T07:11:41;8.00;99.90
2300;DHT22;1158;48.750;9.078;2024-02-15T07:14:09;8.20;99.90
2300;DHT22;1158;48.750;9.078;2024-02-15T07:16:36;8.50;99.90
2300;DHT22;1158;48.750;9.078;2024-02-15T07:19:04;9.30;99.90
2300;DHT22;1158;48.750;9.078;2024-02-15T07:21:31;10.50;99.90
2300;DHT22;1158;48.750;9.078;2024-02-15T07:23:58;11.50;99.90
2300;DHT22;1158;48.750;9.078;2024-02-15T07:26:25;12.50;99.90
2300;DHT22;1158;48.750;9.078;2024-02-15T07:28:51;13.10;99.90
2300;DHT22;1158;48.750;9.078;2024-02-15T07:31:19;13.50;99.90
2300;DHT22;1158;48.750;9.078;2024-02-15T07:33:47;13.00;99.90
2300;DHT22;1158;48.750;9.078;2024-02-15T07:36:18;12.40;99.90
2300;DHT22;1158;48.750;9.078;2024-02-15T07:38:44;13.00;99.90
2300;DHT22;1158;48.750;9.078;2024-02-15T07:41:13;13.50;99.90
2300;DHT22;1158;48.750;9.078;2024-02-15T07:43:40;14.20;99.90
2300;DHT22;1158;48.750;9.078;2024-02-15T07:46:07;14.50;99.90
2300;DHT22;1158;48.750;9.078;2024-02-15T07:48:34;15.00;99.90
2300;DHT22;1158;48.750;9.078;2024-02-15T07:51:01;15.40;99.90
2300;DHT22;1158;48.750;9.078;2024-02-15T07:53:29;15.40;99.90
2300;DHT22;1158;48.750;9.078;2024-02-15T07:55:56;15.70;99.90
2300;DHT22;1158;48.750;9.078;2024-02-15T07:58:23;16.30;99.90
2300;DHT22;1158;48.750;9.078;2024-02-15T08:00:50;17.00;99.90
2300;DHT22;1158;48.750;9.078;2024-02-15T08:03:17;17.40;99.90
2300;DHT22;1158;48.750;9.078;2024-02-15T08:05:43;17.60;99.40
2300;DHT22;1158;48.750;9.078;2024-02-15T08:08:10;17.40;98.80
2300;DHT22;1158;48.750;9.078;2024-02-15T08:10:38;17.20;98.70
2300;DHT22;1158;48.750;9.078;2024-02-15T08:13:05;16.50;98.80
2300;DHT22;1158;48.750;9.078;2024-02-15T08:15:31;15.50;99.90
2300;DHT22;1158;48.750;9.078;2024-02-15T08:17:58;15.00;99.90
2300;DHT22;1158;48.750;9.078;2024-02-15T08:20:25;15.40;99.90
2300;DHT22;1158;48.750;9.078;2024-02-15T08:22:56;15.20;99.90
2300;DHT22;1158;48.750;9.078;2024-02-15T08:25:24;15.80;99.90
2300;DHT22;1158;48.750;9.078;2024-02-15T08:27:52;16.40;99.90
2300;DHT22;1158;48.750;9.078;2024-02-15T08:30:19;17.00;99.80
2300;DHT22;1158;48.750;9.078;2024-02-15T08:32:45;17.10;98.60
2300;DHT22;1158;48.750;9.078;2024-02-15T08:35:13;16.80;98.70
2300;DHT22;1158;48.750;9.078;2024-02-15T08:37:40;16.40;99.50
2300;DHT22;1158;48.750;9.078;2024-02-15T08:40:09;15.30;99.60
2300;DHT22;1158;48.750;9.078;2024-02-15T08:42:38;14.60;99.90
2300;DHT22;1158;48.750;9.078;2024-02-15T08:45:08;14.30;99.90
2300;DHT22;1158;48.750;9.078;2024-02-15T08:47:36;14.10;99.90
2300;DHT22;1158;48.750;9.078;2024-02-15T08:50:05;13.80;99.90
2300;DHT22;1158;48.750;9.078;2024-02-15T08:52:32;13.70;99.90
2300;DHT22;1158;48.750;9.078;2024-02-15T08:54:59;13.60;99.90
2300;DHT22;1158;48.750;9.078;2024-02-15T08:57:26;13.50;99.90
2300;DHT22;1158;48.750;9.078;2024-02-15T08:59:53;13.90;99.90
2300;DHT22;1158;48.750;9.078;2024-02-15T09:02:21;14.20;99.90
2300;DHT22;1158;48.750;9.078;2024-02-15T09:04:48;15.00;99.90
2300;DHT22;1158;48.750;9.078;2024-02-15T09:07:15;15.60;99.90
2300;DHT22;1158;48.750;9.078;2024-02-15T09:09:41;16.40;99.90
2300;DHT22;1158;48.750;9.078;2024-02-15T09:12:08;17.20;99.20
2300;DHT22;1158;48.750;9.078;2024-02-15T09:14:36;17.70;97.90
2300;DHT22;1158;48.750;9.078;2024-02-15T09:17:04;17.80;97.80
2300;DHT22;1158;48.750;9.078;2024-02-15T09:19:34;18.00;97.40
2300;DHT22;1158;48.750;9.078;2024-02-15T09:22:01;18.30;97.10
2300;DHT22;1158;48.750;9.078;2024-02-15T09:24:29;18.90;96.50
2300;DHT22;1158;48.750;9.078;2024-02-15T09:26:58;19.10;95.50
2300;DHT22;1158;48.750;9.078;2024-02-15T09:29:27;19.00;95.40
2300;DHT22;1158;48.750;9.078;2024-02-15T09:31:55;19.20;95.50
2300;DHT22;1158;48.750;9.078;2024-02-15T09:34:22;19.10;94.80
2300;DHT22;1158;48.750;9.078;2024-02-15T09:36:50;18.60;95.30
2300;DHT22;1158;48.750;9.078;2024-02-15T09:39:16;18.40;95.50
2300;DHT22;1158;48.750;9.078;2024-02-15T09:41:43;18.40;95.10
2300;DHT22;1158;48.750;9.078;2024-02-15T09:44:10;18.40;95.50
2300;DHT22;1158;48.750;9.078;2024-02-15T09:46:45;18.60;94.50
2300;DHT22;1158;48.750;9.078;2024-02-15T09:49:13;18.30;95.00
2300;DHT22;1158;48.750;9.078;2024-02-15T09:51:41;18.60;94.50
2300;DHT22;1158;48.750;9.078;2024-02-15T09:54:10;18.60;94.70
2300;DHT22;1158;48.750;9.078;2024-02-15T09:56:40;18.50;94.10
2300;DHT22;1158;48.750;9.078;2024-02-15T09:59:07;19.00;94.30
2300;DHT22;1158;48.750;9.078;2024-02-15T10:01:34;19.70;93.70
2300;DHT22;1158;48.750;9.078;2024-02-15T10:04:05;20.20;92.60
2300;DHT22;1158;48.750;9.078;2024-02-15T10:06:33;20.40;92.30
2300;DHT22;1158;48.750;9.078;2024-02-15T10:09:25;20.80;92.40
2300;DHT22;1158;48.750;9.078;2024-02-15T10:11:56;20.80;91.90
2300;DHT22;1158;48.750;9.078;2024-02-15T10:14:24;21.10;91.60
2300;DHT22;1158;48.750;9.078;2024-02-15T10:16:51;21.00;91.00
2300;DHT22;1158;48.750;9.078;2024-02-15T10:19:19;21.00;90.90
2300;DHT22;1158;48.750;9.078;2024-02-15T10:21:51;21.20;90.70
2300;DHT22;1158;48.750;9.078;2024-02-15T10:24:18;20.80;90.90
2300;DHT22;1158;48.750;9.078;2024-02-15T10:26:48;20.60;91.50
2300;DHT22;1158;48.750;9.078;2024-02-15T10:29:15;19.90;91.50
2300;DHT22;1158;48.750;9.078;2024-02-15T10:31:53;19.40;92.20
2300;DHT22;1158;48.750;9.078;2024-02-15T10:34:21;19.00;92.20
2300;DHT22;1158;48.750;9.078;2024-02-15T10:36:48;19.10;92.50
2300;DHT22;1158;48.750;9.078;2024-02-15T10:39:16;19.10;92.80
2300;DHT22;1158;48.750;9.078;2024-02-15T10:41:48;19.20;92.40
2300;DHT22;1158;48.750;9.078;2024-02-15T10:44:16;19.00;92.30
2300;DHT22;1158;48.750;9.078;2024-02-15T10:46:45;18.60;91.90
2300;DHT22;1158;48.750;9.078;2024-02-15T10:49:16;18.20;92.40
2300;DHT22;1158;48.750;9.078;2024-02-15T10:51:44;18.10;93.10
2300;DHT22;1158;48.750;9.078;2024-02-15T10:54:13;18.20;93.10
2300;DHT22;1158;48.750;9.078;2024-02-15T10:56:43;18.20;93.30
2300;DHT22;1158;48.750;9.078;2024-02-15T10:59:17;18.40;93.10
2300;DHT22;1158;48.750;9.078;2024-02-15T11:01:45;18.60;92.90
2300;DHT22;1158;48.750;9.078;2024-02-15T11:04:15;19.10;92.90
2300;DHT22;1158;48.750;9.078;2024-02-15T11:06:43;19.40;92.50
2300;DHT22;1158;48.750;9.078;2024-02-15T11:09:10;19.50;92.00
2300;DHT22;1158;48.750;9.078;2024-02-15T11:11:39;19.80;91.90
2300;DHT22;1158;48.750;9.078;2024-02-15T11:14:31;20.10;91.80
2300;DHT22;1158;48.750;9.078;2024-02-15T11:16:59;20.50;91.30
2300;DHT22;1158;48.750;9.078;2024-02-15T11:19:41;20.70;91.30
2300;DHT22;1158;48.750;9.078;2024-02-15T11:22:12;20.70;91.30
2300;DHT22;1158;48.750;9.078;2024-02-15T11:24:46;20.10;92.20
2300;DHT22;1158;48.750;9.078;2024-02-15T11:27:13;20.50;91.50
2300;DHT22;1158;48.750;9.078;2024-02-15T11:29:52;20.40;91.70
2300;DHT22;1158;48.750;9.078;2024-02-15T11:32:40;20.40;91.70
2300;DHT22;1158;48.750;9.078;2024-02-15T11:35:10;20.90;91.10
2300;DHT22;1158;48.750;9.078;2024-02-15T11:37:53;20.60;90.00
2300;DHT22;1158;48.750;9.078;2024-02-15T11:40:22;20.20;90.10
2300;DHT22;1158;48.750;9.078;2024-02-15T11:42:49;19.50;90.60
2300;DHT22;1158;48.750;9.078;2024-02-15T11:45:18;19.40;90.50
2300;DHT22;1158;48.750;9.078;2024-02-15T11:47:47;19.30;90.80
2300;DHT22;1158;48.750;9.078;2024-02-15T11:50:16;19.10;90.60
2300;DHT22;1158;48.750;9.078;2024-02-15T11:52:44;18.60;91.30
2300;DHT22;1158;48.750;9.078;2024-02-15T11:55:13;17.90;91.90
2300;DHT22;1158;48.750;9.078;2024-02-15T11:57:40;18.20;91.70
2300;DHT22;1158;48.750;9.078;2024-02-15T12:00:22;18.50;91.30
2300;DHT22;1158;48.750;9.078;2024-02-15T12:03:07;18.50;90.30
2300;DHT22;1158;48.750;9.078;2024-02-15T12:05:52;18.40;90.70
2300;DHT22;1158;48.750;9.078;2024-02-15T12:08:36;18.20;90.70
2300;DHT22;1158;48.750;9.078;2024-02-15T12:11:20;17.80;91.10
2300;DHT22;1158;48.750;9.078;2024-02-15T12:14:04;18.20;91.00
2300;DHT22;1158;48.750;9.078;2024-02-15T12:17:03;18.60;90.60
2300;DHT22;1158;48.750;9.078;2024-02-15T12:19:48;18.40;90.60
2300;DHT22;1158;48.750;9.078;2024-02-15T12:22:18;18.10;90.60
2300;DHT22;1158;48.750;9.078;2024-02-15T12:24:53;17.60;91.40
2300;DHT22;1158;48.750;9.078;2024-02-15T12:27:20;17.30;91.90
2300;DHT22;1158;48.750;9.078;2024-02-15T12:29:53;17.40;92.10
2300;DHT22;1158;48.750;9.078;2024-02-15T12:32:22;18.10;91.60
2300;DHT22;1158;48.750;9.078;2024-02-15T12:34:49;18.40;91.10
2300;DHT22;1158;48.750;9.078;2024-02-15T12:37:18;18.60;91.20
2300;DHT22;1158;48.750;9.078;2024-02-15T12:39:46;18.40;90.90
2300;DHT22;1158;48.750;9.078;2024-02-15T12:42:13;18.60;90.90
2300;DHT22;1158;48.750;9.078;2024-02-15T12:44:43;18.50;91.20
2300;DHT22;1158;48.750;9.078;2024-02-15T12:47:18;18.80;90.70
2300;DHT22;1158;48.750;9.078;2024-02-15T12:49:46;18.70;90.60
2300;DHT22;1158;48.750;9.078;2024-02-15T12:52:38;18.90;90.60
2300;DHT22;1158;48.750;9.078;2024-02-15T12:55:13;19.30;90.10
2300;DHT22;1158;48.750;9.078;2024-02-15T12:57:40;19.30;89.80
2300;DHT22;1158;48.750;9.078;2024-02-15T13:00:11;19.10;90.60
2300;DHT22;1158;48.750;9.078;2024-02-15T13:02:40;19.20;89.70
2300;DHT22;1158;48.750;9.078;2024-02-15T13:05:08;18.90;89.90
2300;DHT22;1158;48.750;9.078;2024-02-15T13:07:36;18.30;90.00
2300;DHT22;1158;48.750;9.078;2024-02-15T13:10:03;18.50;90.90
2300;DHT22;1158;48.750;9.078;2024-02-15T13:12:32;18.70;90.80
2300;DHT22;1158;48.750;9.078;2024-02-15T13:15:02;18.60;90.70
2300;DHT22;1158;48.750;9.078;2024-02-15T13:17:30;18.60;91.10
2300;DHT22;1158;48.750;9.078;2024-02-15T13:19:56;18.80;90.90
2300;DHT22;1158;48.750;9.078;2024-02-15T13:22:31;18.70;90.20
2300;DHT22;1158;48.750;9.078;2024-02-15T13:24:59;18.90;90.50
2300;DHT22;1158;48.750;9.078;2024-02-15T13:27:28;18.70;89.20
2300;DHT22;1158;48.750;9.078;2024-02-15T13:29:55;18.00;90.30
2300;DHT22;1158;48.750;9.078;2024-02-15T13:32:22;17.90;90.40
2300;DHT22;1158;48.750;9.078;2024-02-15T13:34:48;18.10;90.70
2300;DHT22;1158;48.750;9.078;2024-02-15T13:37:18;18.20;90.80
2300;DHT22;1158;48.750;9.078;2024-02-15T13:42:14;18.80;91.40
2300;DHT22;1158;48.750;9.078;2024-02-15T13:44:42;19.10;90.90
2300;DHT22;1158;48.750;9.078;2024-02-15T13:47:09;19.30;90.50
2300;DHT22;1158;48.750;9.078;2024-02-15T13:49:37;19.50;90.30
2300;DHT22;1158;48.750;9.078;2024-02-15T13:52:04;18.90;90.60
2300;DHT22;1158;48.750;9.078;2024-02-15T13:54:32;18.30;91.40
2300;DHT22;1158;48.750;9.078;2024-02-15T13:57:00;18.10;91.80
2300;DHT22;1158;48.750;9.078;2024-02-15T13:59:28;18.20;92.10
2300;DHT22;1158;48.750;9.078;2024-02-15T14:01:55;18.30;92.00
2300;DHT22;1158;48.750;9.078;2024-02-15T14:04:22;18.10;92.00
2300;DHT22;1158;48.750;9.078;2024-02-15T14:06:49;17.80;92.50
2300;DHT22;1158;48.750;9.078;2024-02-15T14:09:15;17.70;93.10
2300;DHT22;1158;48.750;9.078;2024-02-15T14:11:42;17.70;92.90
2300;DHT22;1158;48.750;9.078;2024-02-15T14:14:11;17.70;93.80
2300;DHT22;1158;48.750;9.078;2024-02-15T14:16:36;17.80;92.60
2300;DHT22;1158;48.750;9.078;2024-02-15T14:19:04;17.80;92.70
2300;DHT22;1158;48.750;9.078;2024-02-15T14:21:31;17.70;92.40
2300;DHT22;1158;48.750;9.078;2024-02-15T14:24:05;17.60;92.70
2300;DHT22;1158;48.750;9.078;2024-02-15T14:26:34;17.70;93.30
2300;DHT22;1158;48.750;9.078;2024-02-15T14:29:01;17.80;92.90
2300;DHT22;1158;48.750;9.078;2024-02-15T14:31:30;17.60;93.00
2300;DHT22;1158;48.750;9.078;2024-02-15T14:34:14;17.60;93.20
2300;DHT22;1158;48.750;9.078;2024-02-15T14:36:43;17.70;93.10
2300;DHT22;1158;48.750;9.078;2024-02-15T14:39:11;17.60;92.90
2300;DHT22;1158;48.750;9.078;2024-02-15T14:41:39;17.80;92.90
2300;DHT22;1158;48.750;9.078;2024-02-15T14:44:06;17.80;92.80
2300;DHT22;1158;48.750;9.078;2024-02-15T14:46:35;18.00;93.00
2300;DHT22;1158;48.750;9.078;2024-02-15T14:49:02;18.40;92.80
2300;DHT22;1158;48.750;9.078;2024-02-15T14:51:30;18.60;92.40
2300;DHT22;1158;48.750;9.078;2024-02-15T14:53:58;18.80;92.10
2300;DHT22;1158;48.750;9.078;2024-02-15T14:56:25;19.00;92.00
2300;DHT22;1158;48.750;9.078;2024-02-15T14:58:51;19.20;91.70
2300;DHT22;1158;48.750;9.078;2024-02-15T15:01:18;19.20;91.40
2300;DHT22;1158;48.750;9.078;2024-02-15T15:03:54;18.60;91.60
2300;DHT22;1158;48.750;9.078;2024-02-15T15:06:23;18.00;92.30
2300;DHT22;1158;48.750;9.078;2024-02-15T15:09:08;17.90;93.00
2300;DHT22;1158;48.750;9.078;2024-02-15T15:12:01;17.70;93.40
2300;DHT22;1158;48.750;9.078;2024-02-15T15:14:45;17.70;93.60
2300;DHT22;1158;48.750;9.078;2024-02-15T15:17:13;18.00;93.70
2300;DHT22;1158;48.750;9.078;2024-02-15T15:19:42;17.80;93.40
2300;DHT22;1158;48.750;9.078;2024-02-15T15:22:09;17.70;93.80
2300;DHT22;1158;48.750;9.078;2024-02-15T15:24:36;17.40;93.80
2300;DHT22;1158;48.750;9.078;2024-02-15T15:27:03;17.10;94.10
2300;DHT22;1158;48.750;9.078;2024-02-15T15:29:31;16.90;94.30
2300;DHT22;1158;48.750;9.078;2024-02-15T15:31:58;16.80;94.70
2300;DHT22;1158;48.750;9.078;2024-02-15T15:34:25;16.70;94.90
2300;DHT22;1158;48.750;9.078;2024-02-15T15:36:53;16.60;95.00
2300;DHT22;1158;48.750;9.078;2024-02-15T15:39:20;16.50;95.10
2300;DHT22;1158;48.750;9.078;2024-02-15T15:41:50;16.40;95.30
2300;DHT22;1158;48.750;9.078;2024-02-15T15:44:17;16.20;95.50
2300;DHT22;1158;48.750;9.078;2024-02-15T15:46:46;16.10;95.70
2300;DHT22;1158;48.750;9.078;2024-02-15T15:49:12;16.00;96.00
2300;DHT22;1158;48.750;9.078;2024-02-15T15:51:41;15.90;95.90
2300;DHT22;1158;48.750;9.078;2024-02-15T15:54:09;15.80;96.30
2300;DHT22;1158;48.750;9.078;2024-02-15T15:56:36;15.70;96.40
2300;DHT22;1158;48.750;9.078;2024-02-15T15:59:03;15.60;96.60
2300;DHT22;1158;48.750;9.078;2024-02-15T16:01:31;15.50;96.90
2300;DHT22;1158;48.750;9.078;2024-02-15T16:03:58;15.40;97.00
2300;DHT22;1158;48.750;9.078;2024-02-15T16:06:25;15.30;97.20
2300;DHT22;1158;48.750;9.078;2024-02-15T16:08:51;15.10;97.30
2300;DHT22;1158;48.750;9.078;2024-02-15T16:11:19;15.00;97.60
2300;DHT22;1158;48.750;9.078;2024-02-15T16:13:46;14.90;97.60
2300;DHT22;1158;48.750;9.078;2024-02-15T16:16:14;14.80;97.70
2300;DHT22;1158;48.750;9.078;2024-02-15T16:18:41;14.70;97.90
2300;DHT22;1158;48.750;9.078;2024-02-15T16:21:08;14.70;98.00